createdAt,value
2023-04-17T00:02:00.569Z,15.70
2023-04-17T00:04:32.308Z,15.90
2023-04-17T00:07:03.679Z,16.60
2023-04-17T00:09:34.390Z,15.40
2023-04-17T00:12:05.735Z,16.60
2023-04-17T00:14:36.492Z,15.80
2023-04-17T00:17:07.210Z,16.60
2023-04-17T00:19:37.908Z,15.20
2023-04-17T00:22:08.600Z,15.70
2023-04-17T00:24:39.673Z,15.80
2023-04-17T00:27:11.156Z,15.20
2023-04-17T00:29:42.071Z,16.10
2023-04-17T00:32:13.223Z,15.90
2023-04-17T00:34:44.256Z,15.90
2023-04-17T00:37:15.134Z,15.00
2023-04-17T00:39:46.077Z,14.30
2023-04-17T00:42:17.096Z,16.40
2023-04-17T00:44:48.328Z,16.40
2023-04-17T00:47:22.492Z,15.10
2023-04-17T00:49:53.529Z,15.60
2023-04-17T00:52:30.112Z,16.60
2023-04-17T00:55:01.296Z,15.40
2023-04-17T00:57:32.347Z,19.60
2023-04-17T01:00:03.161Z,21.50
2023-04-17T01:02:34.261Z,21.30
2023-04-17T01:05:05.820Z,22.80
2023-04-17T01:07:37.647Z,22.10
2023-04-17T01:10:10.477Z,22.20
2023-04-17T01:12:46.484Z,22.30
2023-04-17T01:15:17.530Z,19.70
2023-04-17T01:17:48.276Z,19.90
2023-04-17T01:20:19.712Z,19.50
2023-04-17T01:22:53.109Z,18.10
2023-04-17T01:25:24.055Z,18.10
2023-04-17T01:27:55.095Z,17.50
2023-04-17T01:30:25.885Z,17.20
2023-04-17T01:33:09.045Z,16.90
2023-04-17T01:35:39.910Z,16.60
2023-04-17T01:38:10.619Z,15.30
2023-04-17T01:40:41.491Z,16.80
2023-04-17T01:43:12.237Z,16.00
2023-04-17T01:45:42.945Z,16.40
2023-04-17T01:48:13.634Z,16.60
2023-04-17T01:50:44.348Z,16.50
2023-04-17T01:53:15.000Z,16.60
2023-04-17T01:55:45.838Z,17.20
2023-04-17T01:58:16.659Z,16.40
2023-04-17T02:00:49.825Z,16.00
2023-04-17T02:03:20.754Z,16.20
2023-04-17T02:05:52.143Z,16.20
2023-04-17T02:08:23.045Z,15.50
2023-04-17T02:10:54.069Z,17.10
2023-04-17T02:13:24.705Z,16.90
2023-04-17T02:15:55.844Z,16.10
2023-04-17T02:18:26.653Z,16.40
2023-04-17T02:20:57.360Z,16.90
2023-04-17T02:23:28.073Z,16.00
2023-04-17T02:25:59.260Z,15.80
2023-04-17T02:28:29.949Z,16.00
2023-04-17T02:31:00.744Z,16.00
2023-04-17T02:33:31.509Z,15.80
2023-04-17T02:36:02.381Z,16.80
2023-04-17T02:38:39.448Z,16.50
2023-04-17T02:41:10.269Z,15.70
2023-04-17T02:43:41.290Z,16.80
2023-04-17T02:46:13.998Z,17.00
2023-04-17T02:48:44.724Z,15.20
2023-04-17T02:51:15.449Z,15.00
2023-04-17T02:53:46.188Z,14.60
2023-04-17T02:56:16.915Z,15.50
2023-04-17T02:58:47.683Z,16.70
2023-04-17T03:01:18.405Z,16.80
2023-04-17T03:03:49.861Z,16.90
2023-04-17T03:06:21.703Z,16.70
2023-04-17T03:08:52.537Z,17.00
2023-04-17T03:11:23.384Z,16.30
2023-04-17T03:13:54.144Z,16.60
2023-04-17T03:16:26.059Z,15.60
2023-04-17T03:18:57.244Z,15.70
2023-04-17T03:21:28.083Z,16.30
2023-04-17T03:23:58.890Z,17.10
2023-04-17T03:26:29.564Z,16.50
2023-04-17T03:29:01.464Z,15.10
2023-04-17T03:31:32.364Z,16.70
2023-04-17T03:34:03.669Z,16.80
2023-04-17T03:36:34.607Z,15.10
2023-04-17T03:39:05.392Z,16.80
2023-04-17T03:41:36.729Z,16.40
2023-04-17T03:44:08.866Z,16.50
2023-04-17T03:46:40.330Z,15.70
2023-04-17T03:49:11.762Z,17.40
2023-04-17T03:51:43.654Z,16.30
2023-04-17T03:54:19.183Z,23.70
2023-04-17T03:56:50.559Z,17.30
2023-04-17T03:59:21.514Z,16.50
2023-04-17T04:01:54.298Z,16.60
2023-04-17T04:04:26.978Z,15.10
2023-04-17T04:07:03.855Z,15.80
2023-04-17T04:09:34.722Z,13.90
2023-04-17T04:12:07.130Z,16.40
2023-04-17T04:14:42.785Z,16.30
2023-04-17T04:17:13.946Z,15.30
2023-04-17T04:19:46.160Z,16.50
2023-04-17T04:22:18.890Z,17.20
2023-04-17T04:24:54.768Z,16.60
2023-04-17T04:27:35.648Z,15.30
2023-04-17T04:30:10.507Z,14.90
2023-04-17T04:32:47.680Z,14.60
2023-04-17T04:35:19.158Z,15.10
2023-04-17T04:38:02.322Z,16.80
2023-04-17T04:40:38.307Z,15.20
2023-04-17T04:43:14.205Z,14.90
2023-04-17T04:45:47.271Z,14.90
2023-04-17T04:48:18.685Z,14.80
2023-04-17T04:50:50.329Z,16.80
2023-04-17T04:53:22.645Z,14.90
2023-04-17T04:55:58.661Z,18.00
2023-04-17T04:58:33.141Z,17.30
2023-04-17T05:01:06.996Z,15.70
2023-04-17T05:03:46.798Z,15.00
2023-04-17T05:06:23.018Z,13.50
2023-04-17T05:08:58.308Z,13.50
2023-04-17T05:11:29.811Z,15.00
2023-04-17T05:14:02.903Z,15.00
2023-04-17T05:16:35.787Z,12.90
2023-04-17T05:19:06.981Z,15.90
2023-04-17T05:22:11.535Z,14.30
2023-04-17T05:24:52.154Z,16.20
2023-04-17T05:27:23.005Z,15.50
2023-04-17T05:29:53.871Z,14.80
2023-04-17T05:32:24.937Z,15.10
2023-04-17T05:35:03.042Z,14.70
2023-04-17T05:37:34.222Z,16.00
2023-04-17T05:40:07.392Z,14.90
2023-04-17T05:42:38.239Z,17.00
2023-04-17T05:45:13.500Z,15.70
2023-04-17T05:47:46.920Z,16.30
2023-04-17T05:50:18.926Z,16.00
2023-04-17T05:52:50.149Z,16.50
2023-04-17T05:55:24.393Z,15.40
2023-04-17T05:57:58.377Z,14.90
2023-04-17T06:00:31.300Z,14.50
2023-04-17T06:03:12.148Z,14.00
2023-04-17T06:05:44.187Z,17.40
2023-04-17T06:08:15.075Z,15.70
2023-04-17T06:10:48.444Z,16.00
2023-04-17T06:13:19.560Z,16.20
2023-04-17T06:15:52.575Z,16.20
2023-04-17T06:18:23.527Z,15.40
2023-04-17T06:20:54.449Z,17.50
2023-04-17T06:23:25.353Z,15.40
2023-04-17T06:25:57.373Z,14.80
2023-04-17T06:28:31.063Z,15.20
2023-04-17T06:31:03.238Z,14.70
2023-04-17T06:33:34.506Z,17.10
2023-04-17T06:36:10.862Z,17.10
2023-04-17T06:38:49.690Z,16.10
2023-04-17T06:41:21.708Z,15.40
2023-04-17T06:43:52.545Z,17.50
2023-04-17T06:46:26.074Z,17.70
2023-04-17T06:48:59.674Z,15.40
2023-04-17T06:51:32.600Z,16.90
2023-04-17T06:54:05.582Z,16.80
2023-04-17T06:56:40.973Z,16.90
2023-04-17T06:59:11.985Z,16.00
2023-04-17T07:01:43.133Z,14.50
2023-04-17T07:04:14.059Z,16.90
2023-04-17T07:06:44.924Z,16.00
2023-04-17T07:09:18.153Z,15.70
2023-04-17T07:11:48.945Z,16.30
2023-04-17T07:14:19.784Z,14.10
2023-04-17T07:16:50.746Z,15.70
2023-04-17T07:19:22.627Z,15.30
2023-04-17T07:21:53.468Z,16.90
2023-04-17T07:24:24.545Z,15.50
2023-04-17T07:26:57.188Z,16.20
2023-04-17T07:29:30.582Z,16.20
2023-04-17T07:32:01.854Z,15.30
2023-04-17T07:34:34.442Z,15.70
2023-04-17T07:37:06.243Z,15.30
2023-04-17T07:39:37.138Z,15.60
2023-04-17T07:42:10.396Z,15.20
2023-04-17T07:44:43.681Z,15.00
2023-04-17T07:47:14.629Z,13.20
2023-04-17T07:49:49.231Z,15.60
2023-04-17T07:52:20.309Z,16.00
2023-04-17T07:54:53.668Z,16.30
2023-04-17T07:57:26.627Z,14.40
2023-04-17T07:59:57.710Z,13.70
2023-04-17T08:02:29.689Z,12.80
2023-04-17T08:05:02.196Z,12.90
2023-04-17T08:07:33.234Z,11.70
2023-04-17T08:10:17.917Z,13.20
2023-04-17T08:12:51.505Z,13.80
2023-04-17T08:15:22.538Z,14.50
2023-04-17T08:17:53.504Z,14.20
2023-04-17T08:20:25.037Z,13.30
2023-04-17T08:22:56.119Z,12.00
2023-04-17T08:25:27.415Z,12.70
2023-04-17T08:27:59.174Z,12.60
2023-04-17T08:30:30.070Z,12.90
2023-04-17T08:33:01.073Z,13.00
2023-04-17T08:35:32.102Z,14.20
2023-04-17T08:38:02.908Z,12.20
2023-04-17T08:40:33.953Z,12.90
2023-04-17T08:43:06.293Z,12.50
2023-04-17T08:45:41.570Z,11.60
2023-04-17T08:48:13.652Z,12.10
2023-04-17T08:50:47.695Z,12.50
2023-04-17T08:53:18.980Z,13.60
2023-04-17T08:55:50.849Z,13.20
2023-04-17T08:58:28.451Z,12.20
2023-04-17T09:01:12.641Z,12.90
2023-04-17T09:03:45.294Z,11.30
2023-04-17T09:06:17.134Z,13.30
2023-04-17T09:08:59.571Z,12.00
2023-04-17T09:11:30.741Z,12.50
2023-04-17T09:14:01.821Z,14.60
2023-04-17T09:16:37.294Z,12.30
2023-04-17T09:19:16.711Z,10.50
2023-04-17T09:21:47.619Z,10.50
2023-04-17T09:24:33.194Z,12.20
2023-04-17T09:27:23.005Z,12.30
2023-04-17T09:30:02.761Z,11.30
2023-04-17T09:32:34.948Z,12.20
2023-04-17T09:35:06.881Z,11.70
2023-04-17T09:37:53.409Z,11.30
2023-04-17T09:40:26.056Z,12.90
2023-04-17T09:42:59.358Z,11.40
2023-04-17T09:45:35.466Z,11.00
2023-04-17T09:48:08.504Z,11.70
2023-04-17T09:50:40.376Z,11.30
2023-04-17T09:53:11.568Z,11.10
2023-04-17T09:55:46.238Z,12.00
2023-04-17T09:58:19.179Z,11.00
2023-04-17T10:00:50.340Z,10.10
2023-04-17T10:03:22.049Z,10.90
2023-04-17T10:05:54.217Z,10.60
2023-04-17T10:08:26.465Z,15.40
2023-04-17T10:11:07.882Z,11.30
2023-04-17T10:13:42.934Z,10.80
2023-04-17T10:16:14.056Z,11.60
2023-04-17T10:18:45.041Z,10.70
2023-04-17T10:21:26.124Z,11.80
2023-04-17T10:23:57.054Z,10.80
2023-04-17T10:26:38.957Z,11.00
2023-04-17T10:29:10.694Z,11.10
2023-04-17T10:32:28.769Z,11.70
2023-04-17T10:35:05.883Z,12.60
2023-04-17T10:38:07.050Z,12.00
2023-04-17T10:40:40.085Z,10.30
2023-04-17T10:43:17.358Z,10.80
2023-04-17T10:46:06.016Z,10.90
2023-04-17T10:48:40.851Z,10.10
2023-04-17T10:51:41.998Z,10.80
2023-04-17T10:54:15.759Z,12.60
2023-04-17T10:56:48.594Z,9.90
2023-04-17T10:59:22.745Z,11.00
2023-04-17T11:02:05.021Z,9.90
2023-04-17T11:04:38.394Z,9.70
2023-04-17T11:07:09.359Z,9.60
2023-04-17T11:09:41.292Z,10.80
2023-04-17T11:12:13.154Z,10.30
2023-04-17T11:14:44.264Z,11.30
2023-04-17T11:17:15.198Z,10.30
2023-04-17T11:19:48.168Z,11.00
2023-04-17T11:22:19.798Z,11.80
2023-04-17T11:24:53.197Z,10.80
2023-04-17T11:27:25.133Z,10.10
2023-04-17T11:29:55.964Z,10.80
2023-04-17T11:32:26.937Z,9.80
2023-04-17T11:35:00.240Z,10.00
2023-04-17T11:37:31.258Z,9.30
2023-04-17T11:40:13.590Z,9.50
2023-04-17T11:42:48.560Z,9.50
2023-04-17T11:45:21.828Z,10.90
2023-04-17T11:47:55.886Z,9.50
2023-04-17T11:50:38.334Z,8.00
2023-04-17T11:53:09.436Z,8.80
2023-04-17T11:55:40.225Z,8.50
2023-04-17T11:58:12.979Z,9.60
2023-04-17T12:00:45.610Z,8.30
2023-04-17T12:03:38.986Z,7.90
2023-04-17T12:06:11.869Z,8.20
2023-04-17T12:08:50.670Z,9.20
2023-04-17T12:11:33.086Z,7.70
2023-04-17T12:14:05.357Z,7.60
2023-04-17T12:16:37.840Z,8.60
2023-04-17T12:19:09.293Z,9.00
2023-04-17T12:21:41.056Z,8.80
2023-04-17T12:24:12.173Z,8.40
2023-04-17T12:26:50.267Z,7.90
2023-04-17T12:29:29.544Z,8.10
2023-04-17T12:32:08.153Z,8.70
2023-04-17T12:34:39.372Z,7.70
2023-04-17T12:37:12.547Z,7.40
2023-04-17T12:39:44.906Z,7.50
2023-04-17T12:42:16.635Z,6.70
2023-04-17T12:44:48.462Z,6.40
2023-04-17T12:47:22.512Z,6.80
2023-04-17T12:49:56.486Z,7.20
2023-04-17T12:52:27.435Z,8.50
2023-04-17T12:55:00.233Z,7.50
2023-04-17T12:57:31.630Z,8.50
2023-04-17T13:00:09.537Z,7.50
2023-04-17T13:02:43.343Z,8.00
2023-04-17T13:05:14.400Z,7.20
2023-04-17T13:07:46.314Z,7.20
2023-04-17T13:10:17.155Z,8.30
2023-04-17T13:12:50.695Z,7.90
2023-04-17T13:15:21.955Z,8.10
2023-04-17T13:17:52.862Z,8.40
2023-04-17T13:20:23.937Z,7.10
2023-04-17T13:22:55.599Z,7.90
2023-04-17T13:25:30.301Z,7.80
2023-04-17T13:28:01.254Z,6.80
2023-04-17T13:30:33.697Z,6.90
2023-04-17T13:33:04.848Z,7.60
2023-04-17T13:35:44.250Z,6.50
2023-04-17T13:38:15.257Z,6.90
2023-04-17T13:40:46.978Z,7.00
2023-04-17T13:43:34.773Z,7.00
2023-04-17T13:46:06.197Z,6.70
2023-04-17T13:48:37.233Z,6.90
2023-04-17T13:51:16.849Z,6.40
2023-04-17T13:53:52.388Z,6.00
2023-04-17T13:56:24.625Z,5.70
2023-04-17T13:58:55.554Z,6.10
2023-04-17T14:01:27.005Z,6.40
2023-04-17T14:06:32.376Z,5.80
2023-04-17T14:09:03.456Z,5.70
2023-04-17T14:11:34.462Z,6.10
2023-04-17T14:14:29.490Z,5.50
2023-04-17T14:17:04.298Z,6.00
2023-04-17T14:19:35.600Z,5.90
2023-04-17T14:22:06.646Z,5.30
2023-04-17T14:24:37.595Z,4.90
2023-04-17T14:27:08.452Z,5.90
2023-04-17T14:29:39.576Z,5.60
2023-04-17T14:32:10.380Z,5.50
2023-04-17T14:34:41.172Z,5.50
2023-04-17T14:37:14.314Z,5.60
2023-04-17T14:39:45.133Z,5.20
2023-04-17T14:42:15.921Z,5.00
2023-04-17T14:44:47.204Z,5.80
2023-04-17T14:47:18.040Z,6.20
2023-04-17T14:49:48.943Z,6.40
2023-04-17T14:52:22.206Z,5.70
2023-04-17T14:54:53.099Z,6.50
2023-04-17T14:57:25.060Z,6.20
2023-04-17T14:59:56.102Z,6.00
2023-04-17T15:02:27.007Z,5.60
2023-04-17T15:05:01.407Z,6.70
2023-04-17T15:07:32.411Z,6.40
2023-04-17T15:10:03.286Z,6.30
2023-04-17T15:12:34.320Z,7.30
2023-04-17T15:15:06.415Z,6.30
2023-04-17T15:17:39.008Z,6.10
2023-04-17T15:20:13.557Z,6.10
2023-04-17T15:22:45.828Z,6.90
2023-04-17T15:25:17.223Z,6.20
2023-04-17T15:27:48.203Z,6.00
2023-04-17T15:30:19.289Z,6.40
2023-04-17T15:32:51.557Z,6.80
2023-04-17T15:35:22.464Z,6.20
2023-04-17T15:37:53.574Z,7.00
2023-04-17T15:40:27.085Z,7.10
2023-04-17T15:42:57.978Z,7.00
2023-04-17T15:45:29.409Z,8.00
2023-04-17T15:48:01.193Z,7.10
2023-04-17T15:50:33.299Z,14.80
2023-04-17T15:53:07.067Z,8.20
2023-04-17T15:55:38.644Z,7.60
2023-04-17T15:58:09.672Z,7.00
2023-04-17T16:00:40.523Z,7.00
2023-04-17T16:03:11.840Z,6.40
2023-04-17T16:05:47.859Z,6.10
2023-04-17T16:08:18.722Z,6.30
2023-04-17T16:10:49.653Z,6.50
2023-04-17T16:13:20.621Z,6.60
2023-04-17T16:15:51.977Z,5.70
2023-04-17T16:18:22.850Z,6.00
2023-04-17T16:20:56.496Z,6.60
2023-04-17T16:23:27.329Z,5.80
2023-04-17T16:25:58.210Z,6.20
2023-04-17T16:28:29.108Z,7.20
2023-04-17T16:31:00.372Z,6.40
2023-04-17T16:33:34.371Z,6.40
2023-04-17T16:36:10.327Z,6.60
2023-04-17T16:38:41.233Z,6.10
2023-04-17T16:41:12.268Z,6.50
2023-04-17T16:43:48.782Z,6.50
2023-04-17T16:46:35.407Z,7.00
2023-04-17T16:49:16.430Z,7.30
2023-04-17T16:51:52.906Z,6.20
2023-04-17T16:54:23.818Z,6.50
2023-04-17T16:56:55.979Z,6.10
2023-04-17T16:59:26.923Z,6.40
2023-04-17T17:01:59.081Z,6.30
2023-04-17T17:04:42.086Z,6.70
2023-04-17T17:07:13.003Z,4.90
2023-04-17T17:09:43.922Z,6.40
2023-04-17T17:12:14.792Z,6.50
2023-04-17T17:14:45.754Z,6.30
2023-04-17T17:17:16.525Z,6.60
2023-04-17T17:19:47.555Z,6.90
2023-04-17T17:22:18.408Z,6.60
2023-04-17T17:24:49.218Z,5.30
2023-04-17T17:27:20.521Z,6.30
2023-04-17T17:30:00.666Z,6.70
2023-04-17T17:32:31.713Z,6.10
2023-04-17T17:35:02.856Z,6.20
2023-04-17T17:37:34.878Z,7.10
2023-04-17T17:40:13.484Z,6.40
2023-04-17T17:42:45.375Z,6.60
2023-04-17T17:45:16.137Z,6.10
2023-04-17T17:47:46.937Z,6.30
2023-04-17T17:50:17.698Z,6.70
2023-04-17T17:52:48.623Z,6.30
2023-04-17T17:55:19.785Z,6.60
2023-04-17T17:57:50.879Z,6.20
2023-04-17T18:00:22.153Z,7.40
2023-04-17T18:02:53.170Z,6.80
2023-04-17T18:05:24.499Z,6.10
2023-04-17T18:07:55.564Z,6.70
2023-04-17T18:10:26.310Z,6.60
2023-04-17T18:12:57.075Z,6.70
2023-04-17T18:15:27.886Z,6.40
2023-04-17T18:17:58.668Z,7.20
2023-04-17T18:20:32.411Z,6.60
2023-04-17T18:23:03.253Z,7.80
2023-04-17T18:25:37.713Z,6.80
2023-04-17T18:28:11.591Z,6.80
2023-04-17T18:30:45.180Z,6.50
2023-04-17T18:33:17.647Z,7.10
2023-04-17T18:35:48.751Z,6.70
2023-04-17T18:38:19.549Z,6.90
2023-04-17T18:40:54.794Z,7.70
2023-04-17T18:43:25.858Z,7.70
2023-04-17T18:45:58.401Z,7.30
2023-04-17T18:48:29.473Z,7.30
2023-04-17T18:51:08.794Z,7.30
2023-04-17T18:53:41.899Z,8.20
2023-04-17T18:56:15.277Z,8.40
2023-04-17T18:58:47.055Z,7.50
2023-04-17T19:01:21.313Z,7.80
2023-04-17T19:03:55.043Z,7.80
2023-04-17T19:06:26.944Z,7.70
2023-04-17T19:08:58.107Z,7.30
2023-04-17T19:11:33.669Z,7.60
2023-04-17T19:14:05.061Z,7.90
2023-04-17T19:16:36.218Z,7.50
2023-04-17T19:19:08.466Z,7.90
2023-04-17T19:21:41.280Z,7.60
2023-04-17T19:24:15.100Z,8.00
2023-04-17T19:26:46.027Z,8.90
2023-04-17T19:29:17.448Z,7.80
2023-04-17T19:31:48.355Z,8.90
2023-04-17T19:34:19.867Z,8.10
2023-04-17T19:36:55.268Z,8.40
2023-04-17T19:39:29.534Z,9.10
2023-04-17T19:42:01.384Z,8.80
2023-04-17T19:44:32.351Z,9.70
2023-04-17T19:47:04.888Z,9.30
2023-04-17T19:49:35.654Z,10.20
2023-04-17T19:52:06.691Z,8.60
2023-04-17T19:54:37.614Z,9.80
2023-04-17T19:57:08.320Z,9.90
2023-04-17T19:59:39.013Z,9.80
2023-04-17T20:02:09.840Z,9.90
2023-04-17T20:04:40.685Z,9.20
2023-04-17T20:07:11.392Z,10.50
2023-04-17T20:09:42.116Z,10.00
2023-04-17T20:12:12.755Z,10.60
2023-04-17T20:14:43.429Z,9.40
2023-04-17T20:17:14.437Z,11.00
2023-04-17T20:19:45.333Z,10.20
2023-04-17T20:22:17.575Z,10.70
2023-04-17T20:24:51.457Z,10.00
2023-04-17T20:27:22.149Z,11.00
2023-04-17T20:29:52.881Z,11.20
2023-04-17T20:32:24.521Z,10.90
2023-04-17T20:34:55.285Z,10.90
2023-04-17T20:37:25.952Z,10.90
2023-04-17T20:39:57.701Z,11.10
2023-04-17T20:42:28.573Z,10.20
2023-04-17T20:44:59.730Z,10.30
2023-04-17T20:47:30.450Z,10.60
2023-04-17T20:50:03.299Z,11.50
2023-04-17T20:52:34.622Z,11.50
2023-04-17T20:55:06.715Z,11.40
2023-04-17T20:57:37.952Z,10.60
2023-04-17T21:00:12.489Z,11.40
2023-04-17T21:02:45.908Z,11.80
2023-04-17T21:05:16.836Z,11.10
2023-04-17T21:07:49.486Z,10.90
2023-04-17T21:10:22.304Z,12.10
2023-04-17T21:12:52.999Z,11.20
2023-04-17T21:15:24.260Z,12.50
2023-04-17T21:17:55.099Z,11.70
2023-04-17T21:20:27.112Z,11.50
2023-04-17T21:22:58.228Z,11.30
2023-04-17T21:25:29.290Z,11.90
2023-04-17T21:27:59.966Z,12.40
2023-04-17T21:30:30.706Z,11.60
2023-04-17T21:33:01.384Z,11.20
2023-04-17T21:35:32.135Z,12.90
2023-04-17T21:38:02.919Z,11.30
2023-04-17T21:40:33.928Z,12.30
2023-04-17T21:43:05.426Z,12.40
2023-04-17T21:45:36.147Z,13.10
2023-04-17T21:48:06.839Z,13.00
2023-04-17T21:50:37.539Z,10.60
2023-04-17T21:53:08.247Z,11.20
2023-04-17T21:55:40.340Z,11.10
2023-04-17T21:58:11.031Z,11.90
2023-04-17T22:00:41.861Z,13.50
2023-04-17T22:03:12.680Z,12.60
2023-04-17T22:05:43.490Z,12.80
2023-04-17T22:08:14.299Z,12.20
2023-04-17T22:10:45.091Z,13.20
2023-04-17T22:13:16.186Z,12.80
2023-04-17T22:15:48.658Z,13.30
2023-04-17T22:18:19.536Z,12.80
2023-04-17T22:21:43.315Z,12.80
2023-04-17T22:25:25.358Z,12.40
2023-04-17T22:29:07.859Z,12.20
2023-04-17T22:32:49.683Z,13.20
2023-04-17T22:36:31.840Z,12.40
2023-04-17T22:40:15.120Z,13.50
2023-04-17T22:43:57.314Z,12.20
2023-04-17T22:47:39.617Z,13.10
2023-04-17T22:51:22.004Z,12.30
2023-04-17T22:55:03.917Z,14.10
2023-04-17T22:58:45.785Z,15.10
2023-04-17T23:02:27.999Z,13.60
2023-04-17T23:06:10.050Z,15.50
2023-04-17T23:09:23.170Z,15.50
2023-04-17T23:11:54.115Z,14.90
2023-04-17T23:14:26.292Z,16.30
2023-04-17T23:16:56.949Z,16.00
2023-04-17T23:19:27.779Z,14.80
2023-04-17T23:21:59.778Z,15.10
2023-04-17T23:24:33.301Z,15.90
2023-04-17T23:27:04.027Z,16.10
2023-04-17T23:29:34.885Z,15.70
2023-04-17T23:32:07.410Z,15.70
2023-04-17T23:34:38.618Z,16.30
2023-04-17T23:37:09.305Z,14.60
2023-04-17T23:39:40.086Z,14.10
2023-04-17T23:42:10.852Z,14.20
2023-04-17T23:44:41.585Z,15.30
2023-04-17T23:47:13.755Z,16.40
2023-04-17T23:49:44.575Z,16.30
2023-04-17T23:52:15.311Z,14.40
2023-04-17T23:54:46.011Z,15.90
2023-04-17T23:57:16.803Z,16.60
2023-04-17T23:59:47.829Z,17.40
